createdAt,value
2022-08-22T00:02:39.471Z,98187.91
2022-08-22T00:02:43.289Z,98072.69
2022-08-22T00:02:57.678Z,98169.00
2022-08-22T00:03:02.384Z,98046.47
2022-08-22T00:05:42.971Z,98183.09
2022-08-22T00:08:48.115Z,98185.97
2022-08-22T00:11:49.969Z,98182.03
2022-08-22T00:14:48.062Z,98185.69
2022-08-22T00:17:51.017Z,98179.91
2022-08-22T00:20:46.945Z,98185.63
2022-08-22T00:23:46.782Z,98189.91
2022-08-22T00:26:45.817Z,98188.22
2022-08-22T00:29:44.424Z,98194.78
2022-08-22T00:32:42.186Z,98188.53
2022-08-22T00:35:42.929Z,98190.53
2022-08-22T00:38:41.869Z,98194.25
2022-08-22T00:42:00.746Z,98188.59
2022-08-22T00:45:39.335Z,98194.50
2022-08-22T00:49:04.096Z,98186.22
2022-08-22T00:52:22.905Z,98190.94
2022-08-22T00:55:41.733Z,98186.59
2022-08-22T00:58:59.662Z,98186.13
2022-08-22T01:02:32.020Z,98181.13
2022-08-22T01:05:55.037Z,98187.03
2022-08-22T01:09:11.333Z,98176.91
2022-08-22T01:12:27.979Z,98182.81
2022-08-22T01:15:25.117Z,98192.03
2022-08-22T01:18:56.771Z,98190.09
2022-08-22T01:22:22.414Z,98189.44
2022-08-22T01:26:08.784Z,98195.16
2022-08-22T01:29:45.905Z,98192.84
2022-08-22T01:33:24.669Z,98196.91
2022-08-22T01:36:47.366Z,98188.78
2022-08-22T01:40:31.112Z,98190.81
2022-08-22T01:43:58.746Z,98191.19
2022-08-22T01:47:02.450Z,98191.56
2022-08-22T01:50:01.414Z,98192.06
2022-08-22T01:53:03.480Z,98191.41
2022-08-22T01:56:05.452Z,98187.44
2022-08-22T01:59:01.701Z,98198.31
2022-08-22T02:02:02.660Z,98202.19
2022-08-22T02:05:07.279Z,98207.69
2022-08-22T02:08:07.045Z,98207.22
2022-08-22T02:11:06.386Z,98205.56
2022-08-22T02:14:04.627Z,98203.06
2022-08-22T02:17:09.137Z,98205.44
2022-08-22T02:20:11.453Z,98210.16
2022-08-22T02:23:18.694Z,98213.00
2022-08-22T02:26:17.708Z,98211.03
2022-08-22T02:29:14.940Z,98208.56
2022-08-22T02:32:15.643Z,98208.06
2022-08-22T02:35:19.250Z,98211.75
2022-08-22T02:38:26.385Z,98216.78
2022-08-22T02:41:26.151Z,98207.47
2022-08-22T02:44:25.855Z,98209.66
2022-08-22T02:47:28.278Z,98213.53
2022-08-22T02:50:31.021Z,98206.88
2022-08-22T02:53:33.564Z,98213.38
2022-08-22T02:56:32.393Z,98218.28
2022-08-22T02:59:37.373Z,98217.44
2022-08-22T03:02:39.927Z,98212.44
2022-08-22T03:05:46.971Z,98211.97
2022-08-22T03:08:47.587Z,98211.00
2022-08-22T03:11:46.985Z,98213.88
2022-08-22T03:14:45.743Z,98214.22
2022-08-22T03:17:46.647Z,98217.41
2022-08-22T03:20:50.417Z,98222.09
2022-08-22T03:23:47.623Z,98217.28
2022-08-22T03:26:50.398Z,98220.47
2022-08-22T03:29:48.082Z,98215.47
2022-08-22T03:32:59.110Z,98220.81
2022-08-22T03:36:11.340Z,98219.16
2022-08-22T03:39:18.582Z,98220.81
2022-08-22T03:43:00.985Z,98223.19
2022-08-22T03:46:46.205Z,98230.03
2022-08-22T03:50:29.169Z,98228.19
2022-08-22T03:54:30.825Z,98226.91
2022-08-22T03:58:07.114Z,98227.91
2022-08-22T04:01:47.132Z,98240.41
2022-08-22T04:05:34.868Z,98242.13
2022-08-22T04:09:25.629Z,98237.09
2022-08-22T04:12:56.957Z,98243.94
2022-08-22T04:16:29.886Z,98245.94
2022-08-22T04:24:39.357Z,98242.94
2022-08-22T04:27:40.911Z,98245.31
2022-08-22T04:30:41.941Z,98249.81
2022-08-22T04:33:40.376Z,98249.50
2022-08-22T04:36:41.487Z,98250.50
2022-08-22T04:39:39.851Z,98250.66
2022-08-22T04:42:37.442Z,98253.31
2022-08-22T04:45:36.205Z,98253.31
2022-08-22T04:48:34.677Z,98252.97
2022-08-22T04:51:35.255Z,98253.31
2022-08-22T04:54:52.963Z,98262.00
2022-08-22T04:57:57.323Z,98271.00
2022-08-22T05:01:01.078Z,98264.84
2022-08-22T05:04:00.963Z,98265.31
2022-08-22T05:06:57.601Z,98283.00
2022-08-22T05:09:52.755Z,98273.97
2022-08-22T05:12:50.407Z,98280.63
2022-08-22T05:15:45.401Z,98280.28
2022-08-22T05:18:46.735Z,98283.31
2022-08-22T05:21:41.707Z,98283.13
2022-08-22T05:24:38.532Z,98284.13
2022-08-22T05:27:34.596Z,98283.09
2022-08-22T05:30:31.309Z,98289.47
2022-08-22T05:33:33.828Z,98290.44
2022-08-22T05:36:29.860Z,98292.25
2022-08-22T05:39:25.407Z,98297.59
2022-08-22T05:42:27.085Z,98296.22
2022-08-22T05:45:20.227Z,98287.88
2022-08-22T05:48:18.158Z,98292.44
2022-08-22T05:51:18.920Z,98301.75
2022-08-22T05:54:20.084Z,98312.38
2022-08-22T05:57:26.381Z,98307.28
2022-08-22T06:00:23.564Z,98325.28
2022-08-22T06:03:26.784Z,98328.22
2022-08-22T06:06:20.184Z,98327.69
2022-08-22T06:09:34.868Z,98330.78
2022-08-22T06:12:36.056Z,98338.06
2022-08-22T06:15:37.923Z,98340.69
2022-08-22T06:18:32.203Z,98334.66
2022-08-22T06:21:38.527Z,98334.53
2022-08-22T06:24:34.102Z,98328.75
2022-08-22T06:27:31.382Z,98330.38
2022-08-22T06:30:22.608Z,98343.09
2022-08-22T06:33:19.362Z,98330.41
2022-08-22T06:36:34.685Z,98331.34
2022-08-22T06:39:31.114Z,98315.19
2022-08-22T06:42:26.165Z,98321.53
2022-08-22T06:45:23.742Z,98309.19
2022-08-22T06:48:21.299Z,98306.31
2022-08-22T06:51:13.211Z,98304.06
2022-08-22T06:54:08.693Z,98307.50
2022-08-22T06:57:00.361Z,98308.06
2022-08-22T06:59:50.243Z,98298.84
2022-08-22T07:02:55.936Z,98291.34
2022-08-22T07:05:46.036Z,98287.44
2022-08-22T07:08:39.200Z,98292.50
2022-08-22T07:11:32.560Z,98285.59
2022-08-22T07:14:39.720Z,98261.94
2022-08-22T07:17:35.894Z,98265.63
2022-08-22T07:20:45.588Z,98265.28
2022-08-22T07:23:44.885Z,98266.47
2022-08-22T07:26:50.786Z,98261.41
2022-08-22T07:29:55.981Z,98263.13
2022-08-22T07:32:56.510Z,98260.25
2022-08-22T07:36:01.540Z,98264.47
2022-08-22T07:39:13.284Z,98261.34
2022-08-22T07:42:15.635Z,98257.81
2022-08-22T07:45:11.854Z,98251.53
2022-08-22T07:48:25.793Z,98249.03
2022-08-22T07:51:19.942Z,98245.59
2022-08-22T07:54:14.474Z,98242.16
2022-08-22T07:57:09.553Z,98248.06
2022-08-22T08:00:20.630Z,98246.38
2022-08-22T08:03:13.865Z,98239.53
2022-08-22T08:06:04.830Z,98239.50
2022-08-22T08:08:56.919Z,98233.50
2022-08-22T08:11:48.380Z,98235.66
2022-08-22T08:14:41.689Z,98234.53
2022-08-22T08:17:36.369Z,98238.38
2022-08-22T08:20:30.338Z,98240.09
2022-08-22T08:23:23.636Z,98240.53
2022-08-22T08:26:18.208Z,98227.81
2022-08-22T08:29:08.340Z,98218.41
2022-08-22T08:32:01.197Z,98223.75
2022-08-22T08:34:53.443Z,98222.88
2022-08-22T08:37:49.664Z,98216.16
2022-08-22T08:41:22.124Z,98225.69
2022-08-22T08:44:39.552Z,98225.88
2022-08-22T08:47:49.717Z,98229.00
2022-08-22T08:51:18.331Z,98224.78
2022-08-22T08:54:31.421Z,98220.59
2022-08-22T08:57:41.494Z,98223.75
2022-08-22T09:00:53.145Z,98220.22
2022-08-22T09:04:34.784Z,98206.56
2022-08-22T09:08:02.029Z,98204.31
2022-08-22T09:14:59.730Z,98199.38
2022-08-22T09:18:29.214Z,98202.34
2022-08-22T09:22:00.310Z,98206.13
2022-08-22T09:25:23.375Z,98194.53
2022-08-22T09:28:19.535Z,98185.78
2022-08-22T09:31:44.941Z,98193.91
2022-08-22T09:34:58.259Z,98193.19
2022-08-22T09:40:16.672Z,98204.22
2022-08-22T09:41:34.823Z,98199.97
2022-08-22T09:44:40.117Z,98199.31
2022-08-22T09:47:39.258Z,98203.66
2022-08-22T09:50:46.495Z,98198.56
2022-08-22T09:54:31.003Z,98194.75
2022-08-22T09:57:38.934Z,98190.22
2022-08-22T10:00:44.032Z,98188.16
2022-08-22T10:04:40.098Z,98176.38
2022-08-22T10:07:55.217Z,98192.22
2022-08-22T10:11:09.103Z,98191.25
2022-08-22T10:14:09.406Z,98193.59
2022-08-22T10:17:12.886Z,98205.69
2022-08-22T10:20:16.412Z,98198.06
2022-08-22T10:23:21.095Z,98193.63
2022-08-22T10:26:37.950Z,98184.53
2022-08-22T10:29:56.282Z,98186.41
2022-08-22T10:32:56.427Z,98194.28
2022-08-22T10:36:07.883Z,98200.72
2022-08-22T10:39:10.947Z,98192.84
2022-08-22T10:42:23.293Z,98195.41
2022-08-22T10:45:37.131Z,98206.22
2022-08-22T10:48:44.505Z,98194.59
2022-08-22T10:51:46.610Z,98191.91
2022-08-22T10:54:48.282Z,98203.94
2022-08-22T10:58:02.446Z,98202.16
2022-08-22T11:01:00.096Z,98192.00
2022-08-22T11:04:05.876Z,98188.97
2022-08-22T11:07:15.393Z,98181.13
2022-08-22T11:10:16.350Z,98172.34
2022-08-22T11:13:20.623Z,98172.41
2022-08-22T11:16:30.900Z,98169.84
2022-08-22T11:19:58.698Z,98177.47
2022-08-22T11:23:12.334Z,98168.75
2022-08-22T11:26:33.463Z,98172.19
2022-08-22T11:29:43.478Z,98162.53
2022-08-22T11:32:44.380Z,98156.97
2022-08-22T11:35:46.884Z,98150.97
2022-08-22T11:38:47.820Z,98151.59
2022-08-22T11:41:45.559Z,98154.75
2022-08-22T11:44:52.803Z,98141.06
2022-08-22T11:47:57.317Z,98133.59
2022-08-22T11:51:04.485Z,98139.34
2022-08-22T11:54:14.598Z,98136.91
2022-08-22T11:57:10.657Z,98129.31
2022-08-22T12:00:29.557Z,98133.97
2022-08-22T12:03:42.548Z,98130.66
2022-08-22T12:07:01.113Z,98121.81
2022-08-22T12:09:57.806Z,98126.38
2022-08-22T12:13:01.271Z,98118.41
2022-08-22T12:16:07.398Z,98116.63
2022-08-22T12:20:20.651Z,98105.91
2022-08-22T12:23:51.270Z,98101.34
2022-08-22T12:26:59.883Z,98100.00
2022-08-22T12:30:14.801Z,98087.38
2022-08-22T12:33:45.898Z,98078.03
2022-08-22T12:37:05.599Z,98081.56
2022-08-22T12:40:47.632Z,98079.47
2022-08-22T12:43:58.861Z,98071.66
2022-08-22T12:47:12.876Z,98071.00
2022-08-22T12:50:20.640Z,98069.78
2022-08-22T12:53:45.013Z,98067.34
2022-08-22T12:56:50.493Z,98060.31
2022-08-22T12:59:46.162Z,98060.50
2022-08-22T13:02:41.662Z,98062.88
2022-08-22T13:05:34.317Z,98064.19
2022-08-22T13:08:38.653Z,98063.53
2022-08-22T13:11:38.508Z,98062.69
2022-08-22T13:14:32.665Z,98054.41
2022-08-22T13:17:25.372Z,98046.94
2022-08-22T13:20:26.705Z,98054.72
2022-08-22T13:23:24.029Z,98052.09
2022-08-22T13:26:26.923Z,98049.50
2022-08-22T13:29:39.154Z,98056.00
2022-08-22T13:32:40.566Z,98063.34
2022-08-22T13:35:44.808Z,98060.25
2022-08-22T13:38:51.793Z,98053.56
2022-08-22T13:41:55.501Z,98060.25
2022-08-22T13:44:51.196Z,98048.88
2022-08-22T13:47:53.492Z,98054.63
2022-08-22T13:51:08.599Z,98051.72
2022-08-22T13:54:21.283Z,98050.22
2022-08-22T13:57:23.815Z,98041.44
2022-08-22T14:01:10.515Z,98055.28
2022-08-22T14:04:28.395Z,98045.03
2022-08-22T14:07:32.532Z,98041.56
2022-08-22T14:10:29.723Z,98042.69
2022-08-22T14:13:43.692Z,98045.78
2022-08-22T14:16:38.997Z,98043.09
2022-08-22T14:19:53.123Z,98047.78
2022-08-22T14:23:00.981Z,98051.38
2022-08-22T14:25:54.206Z,98055.59
2022-08-22T14:28:45.917Z,98051.53
2022-08-22T14:31:36.485Z,98053.28
2022-08-22T14:34:29.737Z,98052.50
2022-08-22T14:37:30.338Z,98041.75
2022-08-22T14:40:28.801Z,98055.25
2022-08-22T14:43:26.926Z,98048.41
2022-08-22T14:46:27.782Z,98055.06
2022-08-22T14:49:38.215Z,98048.22
2022-08-22T14:52:38.551Z,98049.78
2022-08-22T14:55:30.623Z,98039.34
2022-08-22T14:58:26.535Z,98050.25
2022-08-22T15:01:24.254Z,98047.13
2022-08-22T15:04:24.223Z,98051.47
2022-08-22T15:07:27.037Z,98052.88
2022-08-22T15:10:24.933Z,98042.34
2022-08-22T15:13:22.243Z,98048.38
2022-08-22T15:16:22.151Z,98042.28
2022-08-22T15:19:29.670Z,98042.75
2022-08-22T15:22:27.729Z,98039.06
2022-08-22T15:25:23.085Z,98042.88
2022-08-22T15:28:21.304Z,98038.91
2022-08-22T15:31:19.896Z,98041.31
2022-08-22T15:34:18.186Z,98038.03
2022-08-22T15:37:35.895Z,98035.56
2022-08-22T15:40:44.184Z,98039.75
2022-08-22T15:43:45.534Z,98038.03
2022-08-22T15:46:44.317Z,98031.19
2022-08-22T15:49:39.915Z,98034.06
2022-08-22T15:52:33.220Z,98029.84
2022-08-22T15:55:29.459Z,98029.69
2022-08-22T15:58:25.019Z,98031.72
2022-08-22T16:01:19.231Z,98023.94
2022-08-22T16:04:16.311Z,98024.63
2022-08-22T16:07:27.183Z,98029.44
2022-08-22T16:10:36.071Z,98028.59
2022-08-22T16:13:44.931Z,98025.47
2022-08-22T16:17:04.040Z,98018.56
2022-08-22T16:20:55.732Z,98019.16
2022-08-22T16:24:29.254Z,98020.94
2022-08-22T16:27:25.910Z,98021.06
2022-08-22T16:30:17.173Z,98014.00
2022-08-22T16:33:18.596Z,98020.19
2022-08-22T16:36:43.308Z,98012.63
2022-08-22T16:39:39.542Z,98018.56
2022-08-22T16:42:39.273Z,98021.53
2022-08-22T16:45:37.702Z,98017.75
2022-08-22T16:48:36.297Z,98018.41
2022-08-22T16:51:26.845Z,98024.44
2022-08-22T16:54:48.612Z,98024.03
2022-08-22T16:58:06.144Z,98014.16
2022-08-22T17:01:11.784Z,98013.97
2022-08-22T17:04:15.043Z,98026.13
2022-08-22T17:07:22.813Z,98025.03
2022-08-22T17:10:42.802Z,98017.28
2022-08-22T17:13:55.902Z,98029.56
2022-08-22T17:17:18.173Z,98033.03
2022-08-22T17:20:35.468Z,98033.56
2022-08-22T17:23:43.059Z,98045.13
2022-08-22T17:26:50.841Z,98045.94
2022-08-22T17:30:02.209Z,98050.50
2022-08-22T17:33:16.649Z,98049.00
2022-08-22T17:36:26.662Z,98050.75
2022-08-22T17:39:39.498Z,98057.66
2022-08-22T17:42:54.869Z,98056.31
2022-08-22T17:46:18.773Z,98057.94
2022-08-22T17:49:24.292Z,98061.72
2022-08-22T17:52:25.002Z,98072.91
2022-08-22T17:55:19.860Z,98073.94
2022-08-22T17:58:37.957Z,98066.13
2022-08-22T18:01:51.137Z,98077.19
2022-08-22T18:04:47.791Z,98077.09
2022-08-22T18:08:02.711Z,98083.44
2022-08-22T18:11:06.445Z,98089.31
2022-08-22T18:14:07.410Z,98088.06
2022-08-22T18:17:00.873Z,98091.13
2022-08-22T18:20:05.547Z,98090.94
2022-08-22T18:23:01.875Z,98098.31
2022-08-22T18:26:07.239Z,98108.91
2022-08-22T18:29:04.670Z,98101.09
2022-08-22T18:32:11.079Z,98107.06
2022-08-22T18:35:11.104Z,98110.28
2022-08-22T18:38:19.234Z,98112.44
2022-08-22T18:41:21.939Z,98117.31
2022-08-22T18:44:20.966Z,98122.44
2022-08-22T18:47:22.249Z,98120.13
2022-08-22T18:50:31.520Z,98131.38
2022-08-22T18:53:39.193Z,98131.44
2022-08-22T18:56:54.084Z,98133.47
2022-08-22T19:00:05.921Z,98137.06
2022-08-22T19:03:27.568Z,98155.09
2022-08-22T19:07:12.097Z,98157.13
2022-08-22T19:10:34.284Z,98164.50
2022-08-22T19:13:53.296Z,98161.44
2022-08-22T19:17:21.214Z,98159.41
2022-08-22T19:20:44.502Z,98164.66
2022-08-22T19:23:50.442Z,98159.66
2022-08-22T19:26:51.428Z,98180.63
2022-08-22T19:29:59.516Z,98174.59
2022-08-22T19:33:06.479Z,98179.09
2022-08-22T19:36:12.905Z,98174.44
2022-08-22T19:39:09.126Z,98176.63
2022-08-22T19:41:59.547Z,98180.09
2022-08-22T19:45:00.743Z,98180.03
2022-08-22T19:48:13.086Z,98176.38
2022-08-22T19:51:26.007Z,98184.19
2022-08-22T19:54:24.516Z,98190.31
2022-08-22T19:57:29.915Z,98197.25
2022-08-22T20:00:29.899Z,98198.81
2022-08-22T20:03:42.069Z,98202.84
2022-08-22T20:06:44.595Z,98205.78
2022-08-22T20:09:46.455Z,98205.47
2022-08-22T20:12:50.642Z,98201.13
2022-08-22T20:16:10.294Z,98202.66
2022-08-22T20:19:22.616Z,98197.94
2022-08-22T20:22:20.181Z,98201.94
2022-08-22T20:25:42.591Z,98196.19
2022-08-22T20:28:46.019Z,98200.38
2022-08-22T20:31:38.130Z,98204.16
2022-08-22T20:34:34.668Z,98205.47
2022-08-22T20:37:56.218Z,98203.00
2022-08-22T20:40:54.549Z,98200.75
2022-08-22T20:43:52.069Z,98205.50
2022-08-22T20:46:55.099Z,98204.91
2022-08-22T20:49:50.489Z,98204.31
2022-08-22T20:52:54.381Z,98201.25
2022-08-22T20:55:54.987Z,98206.03
2022-08-22T20:58:48.812Z,98215.16
2022-08-22T21:01:38.891Z,98202.75
2022-08-22T21:04:42.534Z,98213.94
2022-08-22T21:07:37.368Z,98204.41
2022-08-22T21:10:48.821Z,98203.59
2022-08-22T21:13:38.791Z,98206.66
2022-08-22T21:16:32.995Z,98214.31
2022-08-22T21:19:28.667Z,98211.00
2022-08-22T21:22:26.995Z,98213.88
2022-08-22T21:25:17.827Z,98213.06
2022-08-22T21:28:07.093Z,98214.69
2022-08-22T21:30:56.815Z,98209.50
2022-08-22T21:33:51.935Z,98214.88
2022-08-22T21:36:41.717Z,98226.44
2022-08-22T21:39:36.936Z,98225.81
2022-08-22T21:42:34.161Z,98227.81
2022-08-22T21:45:31.641Z,98226.97
2022-08-22T21:48:37.669Z,98226.94
2022-08-22T21:51:42.040Z,98219.22
2022-08-22T21:54:40.770Z,98220.66
2022-08-22T21:57:37.593Z,98226.19
2022-08-22T22:00:52.484Z,98222.03
2022-08-22T22:03:42.262Z,98221.78
2022-08-22T22:06:31.411Z,98221.75
2022-08-22T22:09:20.667Z,98216.34
2022-08-22T22:12:12.110Z,98223.53
2022-08-22T22:15:03.903Z,98223.47
2022-08-22T22:17:54.411Z,98226.13
2022-08-22T22:20:45.522Z,98226.53
2022-08-22T22:23:34.637Z,98231.44
2022-08-22T22:26:23.924Z,98240.28
2022-08-22T22:29:13.182Z,98237.56
2022-08-22T22:32:04.489Z,98240.19
2022-08-22T22:34:54.059Z,98245.47
2022-08-22T22:37:44.095Z,98251.41
2022-08-22T22:40:33.316Z,98250.53
2022-08-22T22:43:22.620Z,98253.78
2022-08-22T22:46:12.323Z,98251.88
2022-08-22T22:49:02.867Z,98255.69
2022-08-22T22:51:52.236Z,98253.22
2022-08-22T22:54:41.394Z,98254.81
2022-08-22T22:57:31.758Z,98256.19
2022-08-22T23:00:36.173Z,98254.31
2022-08-22T23:03:26.724Z,98249.69
2022-08-22T23:06:21.998Z,98252.09
2022-08-22T23:09:11.172Z,98255.53
2022-08-22T23:12:05.355Z,98250.56
2022-08-22T23:14:55.165Z,98249.75
2022-08-22T23:17:44.812Z,98251.50
2022-08-22T23:20:34.076Z,98245.91
2022-08-22T23:23:24.546Z,98242.31
2022-08-22T23:26:15.062Z,98239.81
2022-08-22T23:29:05.542Z,98243.88
2022-08-22T23:31:57.400Z,98247.31
2022-08-22T23:34:48.902Z,98243.69
2022-08-22T23:37:38.390Z,98253.13
2022-08-22T23:40:28.922Z,98244.16
2022-08-22T23:43:18.342Z,98260.78
2022-08-22T23:46:07.868Z,98264.22
2022-08-22T23:48:57.061Z,98262.94
2022-08-22T23:51:47.852Z,98261.63
2022-08-22T23:54:37.393Z,98257.47
2022-08-22T23:57:29.377Z,98256.84
